sensor_id;sensor_type;location;lat;lon;timestamp;P1;durP1;ratioP1;P2;durP2;ratioP2
11807;SDS011;5961;42.640;23.380;2022-11-20T00:00:04;8.57;;;7.13;;
11807;SDS011;5961;42.640;23.380;2022-11-20T00:02:32;12.70;;;7.97;;
11807;SDS011;5961;42.640;23.380;2022-11-20T00:04:58;9.93;;;8.40;;
11807;SDS011;5961;42.640;23.380;2022-11-20T00:07:26;9.27;;;7.70;;
11807;SDS011;5961;42.640;23.380;2022-11-20T00:09:53;10.57;;;8.03;;
11807;SDS011;5961;42.640;23.380;2022-11-20T00:12:20;11.23;;;7.67;;
11807;SDS011;5961;42.640;23.380;2022-11-20T00:14:46;9.70;;;7.40;;
11807;SDS011;5961;42.640;23.380;2022-11-20T00:17:13;10.00;;;7.03;;
11807;SDS011;5961;42.640;23.380;2022-11-20T00:19:40;11.27;;;7.17;;
11807;SDS011;5961;42.640;23.380;2022-11-20T00:22:06;9.97;;;6.90;;
11807;SDS011;5961;42.640;23.380;2022-11-20T00:24:34;9.63;;;6.33;;
11807;SDS011;5961;42.640;23.380;2022-11-20T00:27:01;7.97;;;5.97;;
11807;SDS011;5961;42.640;23.380;2022-11-20T00:29:28;8.50;;;5.10;;
11807;SDS011;5961;42.640;23.380;2022-11-20T00:31:54;5.57;;;3.77;;
11807;SDS011;5961;42.640;23.380;2022-11-20T00:34:21;5.93;;;4.10;;
11807;SDS011;5961;42.640;23.380;2022-11-20T00:36:48;7.40;;;4.40;;
11807;SDS011;5961;42.640;23.380;2022-11-20T00:39:14;8.10;;;5.17;;
11807;SDS011;5961;42.640;23.380;2022-11-20T00:41:42;5.77;;;4.30;;
11807;SDS011;5961;42.640;23.380;2022-11-20T00:44:09;8.07;;;3.77;;
11807;SDS011;5961;42.640;23.380;2022-11-20T00:46:36;4.30;;;3.80;;
11807;SDS011;5961;42.640;23.380;2022-11-20T00:49:02;4.03;;;3.50;;
11807;SDS011;5961;42.640;23.380;2022-11-20T00:51:29;8.27;;;4.10;;
11807;SDS011;5961;42.640;23.380;2022-11-20T00:53:56;5.23;;;3.50;;
11807;SDS011;5961;42.640;23.380;2022-11-20T00:56:25;5.97;;;3.10;;
11807;SDS011;5961;42.640;23.380;2022-11-20T00:58:53;6.63;;;3.30;;
11807;SDS011;5961;42.640;23.380;2022-11-20T01:01:20;3.90;;;3.13;;
11807;SDS011;5961;42.640;23.380;2022-11-20T01:03:49;5.60;;;3.20;;
11807;SDS011;5961;42.640;23.380;2022-11-20T01:06:17;5.87;;;2.93;;
11807;SDS011;5961;42.640;23.380;2022-11-20T01:08:46;4.13;;;3.00;;
11807;SDS011;5961;42.640;23.380;2022-11-20T01:11:14;5.90;;;2.83;;
11807;SDS011;5961;42.640;23.380;2022-11-20T01:13:42;3.03;;;2.50;;
11807;SDS011;5961;42.640;23.380;2022-11-20T01:16:12;5.40;;;2.70;;
11807;SDS011;5961;42.640;23.380;2022-11-20T01:18:41;3.13;;;2.40;;
11807;SDS011;5961;42.640;23.380;2022-11-20T01:21:09;3.20;;;2.63;;
11807;SDS011;5961;42.640;23.380;2022-11-20T01:23:38;4.53;;;2.73;;
11807;SDS011;5961;42.640;23.380;2022-11-20T01:26:07;5.13;;;2.70;;
11807;SDS011;5961;42.640;23.380;2022-11-20T01:28:35;3.90;;;2.70;;
11807;SDS011;5961;42.640;23.380;2022-11-20T01:31:09;3.77;;;2.87;;
11807;SDS011;5961;42.640;23.380;2022-11-20T01:33:39;4.40;;;3.00;;
11807;SDS011;5961;42.640;23.380;2022-11-20T01:36:06;6.07;;;2.77;;
11807;SDS011;5961;42.640;23.380;2022-11-20T01:38:34;4.97;;;3.30;;
11807;SDS011;5961;42.640;23.380;2022-11-20T01:41:01;6.63;;;3.20;;
11807;SDS011;5961;42.640;23.380;2022-11-20T01:43:28;5.17;;;3.40;;
11807;SDS011;5961;42.640;23.380;2022-11-20T01:45:58;3.20;;;2.80;;
11807;SDS011;5961;42.640;23.380;2022-11-20T01:48:30;3.67;;;3.20;;
11807;SDS011;5961;42.640;23.380;2022-11-20T01:51:01;6.10;;;3.50;;
11807;SDS011;5961;42.640;23.380;2022-11-20T01:53:30;5.47;;;3.50;;
11807;SDS011;5961;42.640;23.380;2022-11-20T01:56:01;5.60;;;3.50;;
11807;SDS011;5961;42.640;23.380;2022-11-20T01:58:32;7.07;;;3.53;;
11807;SDS011;5961;42.640;23.380;2022-11-20T02:01:02;4.13;;;3.30;;
11807;SDS011;5961;42.640;23.380;2022-11-20T02:03:31;6.40;;;3.10;;
11807;SDS011;5961;42.640;23.380;2022-11-20T02:06:01;4.00;;;2.80;;
11807;SDS011;5961;42.640;23.380;2022-11-20T02:08:32;7.13;;;2.90;;
11807;SDS011;5961;42.640;23.380;2022-11-20T02:10:59;6.07;;;3.07;;
11807;SDS011;5961;42.640;23.380;2022-11-20T02:13:26;4.43;;;2.77;;
11807;SDS011;5961;42.640;23.380;2022-11-20T02:16:15;2.63;;;2.00;;
11807;SDS011;5961;42.640;23.380;2022-11-20T02:18:46;2.50;;;1.50;;
11807;SDS011;5961;42.640;23.380;2022-11-20T02:21:17;3.87;;;1.73;;
11807;SDS011;5961;42.640;23.380;2022-11-20T02:24:01;4.53;;;1.80;;
11807;SDS011;5961;42.640;23.380;2022-11-20T02:26:30;6.20;;;2.20;;
11807;SDS011;5961;42.640;23.380;2022-11-20T02:28:59;3.53;;;1.50;;
11807;SDS011;5961;42.640;23.380;2022-11-20T02:31:28;2.00;;;1.63;;
11807;SDS011;5961;42.640;23.380;2022-11-20T02:33:55;2.93;;;1.50;;
11807;SDS011;5961;42.640;23.380;2022-11-20T02:36:22;4.30;;;1.40;;
11807;SDS011;5961;42.640;23.380;2022-11-20T02:38:50;4.77;;;1.50;;
11807;SDS011;5961;42.640;23.380;2022-11-20T02:41:18;2.57;;;1.27;;
11807;SDS011;5961;42.640;23.380;2022-11-20T02:43:45;2.80;;;1.30;;
11807;SDS011;5961;42.640;23.380;2022-11-20T02:46:12;2.33;;;1.30;;
11807;SDS011;5961;42.640;23.380;2022-11-20T02:48:38;4.53;;;1.40;;
11807;SDS011;5961;42.640;23.380;2022-11-20T02:51:05;2.70;;;1.63;;
11807;SDS011;5961;42.640;23.380;2022-11-20T02:53:32;2.90;;;1.50;;
11807;SDS011;5961;42.640;23.380;2022-11-20T02:55:58;2.73;;;1.50;;
11807;SDS011;5961;42.640;23.380;2022-11-20T02:58:26;3.87;;;1.30;;
11807;SDS011;5961;42.640;23.380;2022-11-20T03:00:53;2.47;;;1.40;;
11807;SDS011;5961;42.640;23.380;2022-11-20T03:03:20;2.37;;;1.30;;
11807;SDS011;5961;42.640;23.380;2022-11-20T03:05:46;1.93;;;1.23;;
11807;SDS011;5961;42.640;23.380;2022-11-20T03:08:13;1.47;;;1.30;;
11807;SDS011;5961;42.640;23.380;2022-11-20T03:10:39;2.93;;;1.40;;
11807;SDS011;5961;42.640;23.380;2022-11-20T03:13:06;2.43;;;1.30;;
11807;SDS011;5961;42.640;23.380;2022-11-20T03:15:35;1.77;;;1.30;;
11807;SDS011;5961;42.640;23.380;2022-11-20T03:18:02;2.53;;;1.40;;
11807;SDS011;5961;42.640;23.380;2022-11-20T03:20:29;3.03;;;1.40;;
11807;SDS011;5961;42.640;23.380;2022-11-20T03:22:56;3.57;;;1.40;;
11807;SDS011;5961;42.640;23.380;2022-11-20T03:25:23;2.13;;;1.40;;
11807;SDS011;5961;42.640;23.380;2022-11-20T03:27:50;2.57;;;1.50;;
11807;SDS011;5961;42.640;23.380;2022-11-20T03:30:16;1.63;;;1.40;;
11807;SDS011;5961;42.640;23.380;2022-11-20T03:32:45;3.53;;;1.27;;
11807;SDS011;5961;42.640;23.380;2022-11-20T03:35:11;2.10;;;1.47;;
11807;SDS011;5961;42.640;23.380;2022-11-20T03:37:38;1.73;;;1.30;;
11807;SDS011;5961;42.640;23.380;2022-11-20T03:40:05;2.43;;;1.43;;
11807;SDS011;5961;42.640;23.380;2022-11-20T03:42:33;1.60;;;1.30;;
11807;SDS011;5961;42.640;23.380;2022-11-20T03:45:11;3.03;;;1.53;;
11807;SDS011;5961;42.640;23.380;2022-11-20T03:47:38;2.50;;;1.37;;
11807;SDS011;5961;42.640;23.380;2022-11-20T03:50:07;2.17;;;1.30;;
11807;SDS011;5961;42.640;23.380;2022-11-20T03:52:34;5.73;;;1.30;;
11807;SDS011;5961;42.640;23.380;2022-11-20T03:55:01;4.00;;;1.30;;
11807;SDS011;5961;42.640;23.380;2022-11-20T03:57:28;2.03;;;1.30;;
11807;SDS011;5961;42.640;23.380;2022-11-20T03:59:55;1.97;;;1.60;;
11807;SDS011;5961;42.640;23.380;2022-11-20T04:02:21;1.57;;;1.30;;
11807;SDS011;5961;42.640;23.380;2022-11-20T04:04:48;1.43;;;1.33;;
11807;SDS011;5961;42.640;23.380;2022-11-20T04:07:16;5.63;;;1.80;;
11807;SDS011;5961;42.640;23.380;2022-11-20T04:09:43;3.87;;;1.30;;
11807;SDS011;5961;42.640;23.380;2022-11-20T04:12:10;4.00;;;1.40;;
11807;SDS011;5961;42.640;23.380;2022-11-20T04:14:36;1.97;;;1.30;;
11807;SDS011;5961;42.640;23.380;2022-11-20T04:17:03;1.77;;;1.47;;
11807;SDS011;5961;42.640;23.380;2022-11-20T04:19:30;1.83;;;1.50;;
11807;SDS011;5961;42.640;23.380;2022-11-20T04:21:57;2.83;;;1.30;;
11807;SDS011;5961;42.640;23.380;2022-11-20T04:24:25;5.80;;;1.87;;
11807;SDS011;5961;42.640;23.380;2022-11-20T04:26:52;1.60;;;1.17;;
11807;SDS011;5961;42.640;23.380;2022-11-20T04:29:19;2.67;;;1.20;;
11807;SDS011;5961;42.640;23.380;2022-11-20T04:31:45;2.73;;;1.33;;
11807;SDS011;5961;42.640;23.380;2022-11-20T04:34:12;2.70;;;1.30;;
11807;SDS011;5961;42.640;23.380;2022-11-20T04:36:39;1.37;;;1.10;;
11807;SDS011;5961;42.640;23.380;2022-11-20T04:39:06;2.93;;;1.40;;
11807;SDS011;5961;42.640;23.380;2022-11-20T04:41:34;1.97;;;1.40;;
11807;SDS011;5961;42.640;23.380;2022-11-20T04:44:04;2.83;;;1.50;;
11807;SDS011;5961;42.640;23.380;2022-11-20T04:46:33;1.60;;;1.17;;
11807;SDS011;5961;42.640;23.380;2022-11-20T04:49:00;3.57;;;1.50;;
11807;SDS011;5961;42.640;23.380;2022-11-20T04:51:27;3.73;;;1.60;;
11807;SDS011;5961;42.640;23.380;2022-11-20T04:53:54;2.20;;;1.50;;
11807;SDS011;5961;42.640;23.380;2022-11-20T04:56:21;2.47;;;1.50;;
11807;SDS011;5961;42.640;23.380;2022-11-20T04:58:49;4.40;;;1.80;;
11807;SDS011;5961;42.640;23.380;2022-11-20T05:01:17;2.37;;;1.50;;
11807;SDS011;5961;42.640;23.380;2022-11-20T05:03:45;3.60;;;1.40;;
11807;SDS011;5961;42.640;23.380;2022-11-20T05:06:12;1.87;;;1.43;;
11807;SDS011;5961;42.640;23.380;2022-11-20T05:08:40;2.40;;;1.30;;
11807;SDS011;5961;42.640;23.380;2022-11-20T05:11:08;1.73;;;1.50;;
11807;SDS011;5961;42.640;23.380;2022-11-20T05:13:35;2.70;;;1.63;;
11807;SDS011;5961;42.640;23.380;2022-11-20T05:16:05;3.73;;;1.60;;
11807;SDS011;5961;42.640;23.380;2022-11-20T05:18:34;4.00;;;1.80;;
11807;SDS011;5961;42.640;23.380;2022-11-20T05:21:01;2.23;;;1.37;;
11807;SDS011;5961;42.640;23.380;2022-11-20T05:23:30;2.00;;;1.67;;
11807;SDS011;5961;42.640;23.380;2022-11-20T05:25:58;3.87;;;1.57;;
11807;SDS011;5961;42.640;23.380;2022-11-20T05:28:25;3.47;;;1.80;;
11807;SDS011;5961;42.640;23.380;2022-11-20T05:30:53;3.67;;;1.63;;
11807;SDS011;5961;42.640;23.380;2022-11-20T05:33:21;2.50;;;2.00;;
11807;SDS011;5961;42.640;23.380;2022-11-20T05:35:48;5.57;;;2.30;;
11807;SDS011;5961;42.640;23.380;2022-11-20T05:38:15;4.63;;;2.40;;
11807;SDS011;5961;42.640;23.380;2022-11-20T05:40:42;4.50;;;2.23;;
11807;SDS011;5961;42.640;23.380;2022-11-20T05:43:08;9.07;;;2.70;;
11807;SDS011;5961;42.640;23.380;2022-11-20T05:45:35;4.73;;;2.80;;
11807;SDS011;5961;42.640;23.380;2022-11-20T05:48:02;3.90;;;2.20;;
11807;SDS011;5961;42.640;23.380;2022-11-20T05:50:30;4.23;;;1.90;;
11807;SDS011;5961;42.640;23.380;2022-11-20T05:52:57;4.10;;;2.47;;
11807;SDS011;5961;42.640;23.380;2022-11-20T05:55:24;3.90;;;2.33;;
11807;SDS011;5961;42.640;23.380;2022-11-20T05:57:51;5.73;;;2.03;;
11807;SDS011;5961;42.640;23.380;2022-11-20T06:00:18;6.00;;;2.00;;
11807;SDS011;5961;42.640;23.380;2022-11-20T06:02:45;5.00;;;1.70;;
11807;SDS011;5961;42.640;23.380;2022-11-20T06:05:12;4.97;;;1.83;;
11807;SDS011;5961;42.640;23.380;2022-11-20T06:07:40;3.43;;;1.87;;
11807;SDS011;5961;42.640;23.380;2022-11-20T06:10:07;3.67;;;1.83;;
11807;SDS011;5961;42.640;23.380;2022-11-20T06:12:34;3.03;;;1.60;;
11807;SDS011;5961;42.640;23.380;2022-11-20T06:15:01;3.37;;;1.60;;
11807;SDS011;5961;42.640;23.380;2022-11-20T06:17:28;2.90;;;1.90;;
11807;SDS011;5961;42.640;23.380;2022-11-20T06:19:55;5.37;;;2.03;;
11807;SDS011;5961;42.640;23.380;2022-11-20T06:22:21;4.23;;;1.70;;
11807;SDS011;5961;42.640;23.380;2022-11-20T06:24:49;4.63;;;1.70;;
11807;SDS011;5961;42.640;23.380;2022-11-20T06:27:16;4.83;;;1.70;;
11807;SDS011;5961;42.640;23.380;2022-11-20T06:29:43;5.47;;;1.70;;
11807;SDS011;5961;42.640;23.380;2022-11-20T06:32:09;5.00;;;1.67;;
11807;SDS011;5961;42.640;23.380;2022-11-20T06:34:36;4.10;;;1.77;;
11807;SDS011;5961;42.640;23.380;2022-11-20T06:37:03;3.97;;;1.70;;
11807;SDS011;5961;42.640;23.380;2022-11-20T06:39:29;4.73;;;1.77;;
11807;SDS011;5961;42.640;23.380;2022-11-20T06:41:57;3.30;;;1.80;;
11807;SDS011;5961;42.640;23.380;2022-11-20T06:44:24;5.37;;;2.00;;
11807;SDS011;5961;42.640;23.380;2022-11-20T06:46:51;6.60;;;2.60;;
11807;SDS011;5961;42.640;23.380;2022-11-20T06:49:17;3.07;;;1.87;;
11807;SDS011;5961;42.640;23.380;2022-11-20T06:51:44;5.87;;;1.60;;
11807;SDS011;5961;42.640;23.380;2022-11-20T06:54:11;4.30;;;1.43;;
11807;SDS011;5961;42.640;23.380;2022-11-20T06:56:37;3.03;;;1.63;;
11807;SDS011;5961;42.640;23.380;2022-11-20T06:59:06;4.77;;;1.87;;
11807;SDS011;5961;42.640;23.380;2022-11-20T07:01:33;3.80;;;1.60;;
11807;SDS011;5961;42.640;23.380;2022-11-20T07:04:00;4.37;;;1.77;;
11807;SDS011;5961;42.640;23.380;2022-11-20T07:06:28;7.43;;;2.03;;
11807;SDS011;5961;42.640;23.380;2022-11-20T07:08:54;4.63;;;1.70;;
11807;SDS011;5961;42.640;23.380;2022-11-20T07:11:21;5.60;;;1.50;;
11807;SDS011;5961;42.640;23.380;2022-11-20T07:13:48;6.07;;;1.80;;
11807;SDS011;5961;42.640;23.380;2022-11-20T07:16:16;4.13;;;2.33;;
11807;SDS011;5961;42.640;23.380;2022-11-20T07:18:43;5.43;;;1.70;;
11807;SDS011;5961;42.640;23.380;2022-11-20T07:21:09;7.53;;;1.60;;
11807;SDS011;5961;42.640;23.380;2022-11-20T07:23:37;6.03;;;2.47;;
11807;SDS011;5961;42.640;23.380;2022-11-20T07:26:04;4.07;;;2.20;;
11807;SDS011;5961;42.640;23.380;2022-11-20T07:28:31;6.57;;;1.93;;
11807;SDS011;5961;42.640;23.380;2022-11-20T07:30:58;3.00;;;1.90;;
11807;SDS011;5961;42.640;23.380;2022-11-20T07:33:26;4.70;;;1.93;;
11807;SDS011;5961;42.640;23.380;2022-11-20T07:35:53;4.80;;;1.67;;
11807;SDS011;5961;42.640;23.380;2022-11-20T07:38:20;3.97;;;2.20;;
11807;SDS011;5961;42.640;23.380;2022-11-20T07:40:46;4.67;;;2.10;;
11807;SDS011;5961;42.640;23.380;2022-11-20T07:43:14;5.43;;;1.73;;
11807;SDS011;5961;42.640;23.380;2022-11-20T07:45:40;6.60;;;1.80;;
11807;SDS011;5961;42.640;23.380;2022-11-20T07:48:07;4.50;;;1.60;;
11807;SDS011;5961;42.640;23.380;2022-11-20T07:50:35;4.67;;;1.80;;
11807;SDS011;5961;42.640;23.380;2022-11-20T07:53:02;3.13;;;1.83;;
11807;SDS011;5961;42.640;23.380;2022-11-20T07:55:29;4.90;;;2.30;;
11807;SDS011;5961;42.640;23.380;2022-11-20T07:57:57;2.47;;;1.80;;
11807;SDS011;5961;42.640;23.380;2022-11-20T08:00:25;4.90;;;2.40;;
11807;SDS011;5961;42.640;23.380;2022-11-20T08:02:52;3.83;;;2.03;;
11807;SDS011;5961;42.640;23.380;2022-11-20T08:05:19;2.23;;;1.80;;
11807;SDS011;5961;42.640;23.380;2022-11-20T08:07:47;3.83;;;1.97;;
11807;SDS011;5961;42.640;23.380;2022-11-20T08:10:14;3.20;;;1.80;;
11807;SDS011;5961;42.640;23.380;2022-11-20T08:12:45;2.80;;;1.50;;
11807;SDS011;5961;42.640;23.380;2022-11-20T08:15:30;2.50;;;1.80;;
11807;SDS011;5961;42.640;23.380;2022-11-20T08:18:01;3.43;;;1.50;;
11807;SDS011;5961;42.640;23.380;2022-11-20T08:20:28;4.93;;;1.70;;
11807;SDS011;5961;42.640;23.380;2022-11-20T08:23:00;5.57;;;1.77;;
11807;SDS011;5961;42.640;23.380;2022-11-20T08:25:27;6.67;;;1.93;;
11807;SDS011;5961;42.640;23.380;2022-11-20T08:27:56;5.90;;;2.27;;
11807;SDS011;5961;42.640;23.380;2022-11-20T08:30:23;3.20;;;1.70;;
11807;SDS011;5961;42.640;23.380;2022-11-20T08:32:50;6.10;;;2.40;;
11807;SDS011;5961;42.640;23.380;2022-11-20T08:35:17;7.53;;;1.87;;
11807;SDS011;5961;42.640;23.380;2022-11-20T08:37:45;5.03;;;2.07;;
11807;SDS011;5961;42.640;23.380;2022-11-20T08:40:14;8.30;;;1.90;;
11807;SDS011;5961;42.640;23.380;2022-11-20T08:42:45;6.67;;;2.07;;
11807;SDS011;5961;42.640;23.380;2022-11-20T08:45:12;4.23;;;1.73;;
11807;SDS011;5961;42.640;23.380;2022-11-20T08:47:39;4.67;;;1.80;;
11807;SDS011;5961;42.640;23.380;2022-11-20T08:50:07;7.90;;;2.00;;
11807;SDS011;5961;42.640;23.380;2022-11-20T08:52:34;3.77;;;2.10;;
11807;SDS011;5961;42.640;23.380;2022-11-20T08:55:01;4.47;;;2.63;;
11807;SDS011;5961;42.640;23.380;2022-11-20T08:57:29;6.27;;;2.47;;
11807;SDS011;5961;42.640;23.380;2022-11-20T08:59:57;4.83;;;1.97;;
11807;SDS011;5961;42.640;23.380;2022-11-20T09:02:24;4.23;;;2.20;;
11807;SDS011;5961;42.640;23.380;2022-11-20T09:04:51;3.40;;;1.97;;
11807;SDS011;5961;42.640;23.380;2022-11-20T09:07:18;6.07;;;2.10;;
11807;SDS011;5961;42.640;23.380;2022-11-20T09:09:45;6.63;;;1.97;;
11807;SDS011;5961;42.640;23.380;2022-11-20T09:12:12;5.30;;;2.23;;
11807;SDS011;5961;42.640;23.380;2022-11-20T09:14:41;3.87;;;1.97;;
11807;SDS011;5961;42.640;23.380;2022-11-20T09:17:09;6.17;;;2.63;;
11807;SDS011;5961;42.640;23.380;2022-11-20T09:19:38;3.17;;;2.23;;
11807;SDS011;5961;42.640;23.380;2022-11-20T09:22:06;5.63;;;2.37;;
11807;SDS011;5961;42.640;23.380;2022-11-20T09:24:32;4.90;;;2.40;;
11807;SDS011;5961;42.640;23.380;2022-11-20T09:27:01;7.80;;;2.83;;
11807;SDS011;5961;42.640;23.380;2022-11-20T09:29:28;4.03;;;2.60;;
11807;SDS011;5961;42.640;23.380;2022-11-20T09:31:56;5.00;;;3.20;;
11807;SDS011;5961;42.640;23.380;2022-11-20T09:34:23;3.33;;;2.70;;
11807;SDS011;5961;42.640;23.380;2022-11-20T09:36:50;4.90;;;2.40;;
11807;SDS011;5961;42.640;23.380;2022-11-20T09:39:16;4.90;;;2.07;;
11807;SDS011;5961;42.640;23.380;2022-11-20T09:41:50;4.93;;;2.60;;
11807;SDS011;5961;42.640;23.380;2022-11-20T09:44:41;7.10;;;2.40;;
11807;SDS011;5961;42.640;23.380;2022-11-20T09:47:23;3.03;;;2.10;;
11807;SDS011;5961;42.640;23.380;2022-11-20T09:50:07;2.47;;;2.23;;
11807;SDS011;5961;42.640;23.380;2022-11-20T09:52:45;3.90;;;2.50;;
11807;SDS011;5961;42.640;23.380;2022-11-20T09:55:21;6.00;;;2.63;;
11807;SDS011;5961;42.640;23.380;2022-11-20T09:57:48;3.67;;;2.83;;
11807;SDS011;5961;42.640;23.380;2022-11-20T10:00:18;4.30;;;2.57;;
11807;SDS011;5961;42.640;23.380;2022-11-20T10:02:48;4.30;;;2.60;;
11807;SDS011;5961;42.640;23.380;2022-11-20T10:05:22;5.00;;;2.13;;
11807;SDS011;5961;42.640;23.380;2022-11-20T10:07:55;2.57;;;1.73;;
11807;SDS011;5961;42.640;23.380;2022-11-20T10:10:35;4.13;;;2.10;;
11807;SDS011;5961;42.640;23.380;2022-11-20T10:13:15;3.20;;;2.00;;
11807;SDS011;5961;42.640;23.380;2022-11-20T10:15:54;4.10;;;2.30;;
11807;SDS011;5961;42.640;23.380;2022-11-20T10:18:36;3.60;;;2.20;;
11807;SDS011;5961;42.640;23.380;2022-11-20T10:21:16;5.57;;;2.70;;
11807;SDS011;5961;42.640;23.380;2022-11-20T10:26:51;5.10;;;2.67;;
11807;SDS011;5961;42.640;23.380;2022-11-20T10:29:27;5.57;;;3.00;;
11807;SDS011;5961;42.640;23.380;2022-11-20T10:32:00;10.83;;;3.20;;
11807;SDS011;5961;42.640;23.380;2022-11-20T10:34:31;5.10;;;3.17;;
11807;SDS011;5961;42.640;23.380;2022-11-20T10:37:02;6.87;;;3.23;;
11807;SDS011;5961;42.640;23.380;2022-11-20T10:39:36;9.03;;;3.13;;
11807;SDS011;5961;42.640;23.380;2022-11-20T10:42:08;7.50;;;3.10;;
11807;SDS011;5961;42.640;23.380;2022-11-20T10:44:39;6.17;;;3.40;;
11807;SDS011;5961;42.640;23.380;2022-11-20T10:47:30;9.43;;;4.30;;
11807;SDS011;5961;42.640;23.380;2022-11-20T10:50:01;5.17;;;3.10;;
11807;SDS011;5961;42.640;23.380;2022-11-20T10:52:32;6.00;;;3.17;;
11807;SDS011;5961;42.640;23.380;2022-11-20T10:55:10;7.77;;;3.10;;
11807;SDS011;5961;42.640;23.380;2022-11-20T10:57:50;6.83;;;3.50;;
11807;SDS011;5961;42.640;23.380;2022-11-20T11:00:20;11.37;;;3.80;;
11807;SDS011;5961;42.640;23.380;2022-11-20T11:02:48;7.77;;;3.43;;
11807;SDS011;5961;42.640;23.380;2022-11-20T11:05:27;6.83;;;3.37;;
11807;SDS011;5961;42.640;23.380;2022-11-20T11:08:01;6.43;;;3.40;;
11807;SDS011;5961;42.640;23.380;2022-11-20T11:10:32;5.20;;;3.07;;
11807;SDS011;5961;42.640;23.380;2022-11-20T11:13:06;8.53;;;3.50;;
11807;SDS011;5961;42.640;23.380;2022-11-20T11:15:36;8.00;;;3.53;;
11807;SDS011;5961;42.640;23.380;2022-11-20T11:18:05;7.07;;;3.30;;
11807;SDS011;5961;42.640;23.380;2022-11-20T11:20:36;9.37;;;3.60;;
11807;SDS011;5961;42.640;23.380;2022-11-20T11:23:03;8.17;;;3.53;;
11807;SDS011;5961;42.640;23.380;2022-11-20T11:25:31;6.53;;;3.47;;
11807;SDS011;5961;42.640;23.380;2022-11-20T11:28:02;6.47;;;2.60;;
11807;SDS011;5961;42.640;23.380;2022-11-20T11:30:40;7.27;;;2.30;;
11807;SDS011;5961;42.640;23.380;2022-11-20T11:33:09;1.40;;;1.07;;
11807;SDS011;5961;42.640;23.380;2022-11-20T11:35:43;2.53;;;1.40;;
11807;SDS011;5961;42.640;23.380;2022-11-20T11:38:12;2.67;;;1.60;;
11807;SDS011;5961;42.640;23.380;2022-11-20T11:40:42;2.30;;;1.10;;
11807;SDS011;5961;42.640;23.380;2022-11-20T11:43:16;1.87;;;1.00;;
11807;SDS011;5961;42.640;23.380;2022-11-20T11:46:06;2.03;;;1.10;;
11807;SDS011;5961;42.640;23.380;2022-11-20T11:48:54;1.87;;;1.40;;
11807;SDS011;5961;42.640;23.380;2022-11-20T11:51:24;2.43;;;1.30;;
11807;SDS011;5961;42.640;23.380;2022-11-20T11:53:55;3.47;;;1.50;;
11807;SDS011;5961;42.640;23.380;2022-11-20T11:56:24;3.47;;;1.60;;
11807;SDS011;5961;42.640;23.380;2022-11-20T11:58:53;1.80;;;1.20;;
11807;SDS011;5961;42.640;23.380;2022-11-20T12:01:26;4.03;;;1.10;;
11807;SDS011;5961;42.640;23.380;2022-11-20T12:04:00;1.93;;;1.10;;
11807;SDS011;5961;42.640;23.380;2022-11-20T12:06:33;1.40;;;1.03;;
11807;SDS011;5961;42.640;23.380;2022-11-20T12:09:05;3.10;;;1.30;;
11807;SDS011;5961;42.640;23.380;2022-11-20T12:11:37;1.00;;;0.87;;
11807;SDS011;5961;42.640;23.380;2022-11-20T12:14:11;4.33;;;1.10;;
11807;SDS011;5961;42.640;23.380;2022-11-20T12:16:44;1.60;;;0.83;;
11807;SDS011;5961;42.640;23.380;2022-11-20T12:19:11;1.53;;;1.00;;
11807;SDS011;5961;42.640;23.380;2022-11-20T12:21:43;0.80;;;0.70;;
11807;SDS011;5961;42.640;23.380;2022-11-20T12:27:27;0.70;;;0.70;;
11807;SDS011;5961;42.640;23.380;2022-11-20T12:30:07;1.03;;;0.70;;
11807;SDS011;5961;42.640;23.380;2022-11-20T12:32:39;2.20;;;0.87;;
11807;SDS011;5961;42.640;23.380;2022-11-20T12:41:08;1.53;;;1.07;;
11807;SDS011;5961;42.640;23.380;2022-11-20T12:44:02;1.47;;;0.90;;
11807;SDS011;5961;42.640;23.380;2022-11-20T12:47:03;2.30;;;1.23;;
11807;SDS011;5961;42.640;23.380;2022-11-20T12:49:41;3.30;;;1.30;;
11807;SDS011;5961;42.640;23.380;2022-11-20T12:52:20;1.93;;;1.30;;
11807;SDS011;5961;42.640;23.380;2022-11-20T12:57:50;1.10;;;1.00;;
11807;SDS011;5961;42.640;23.380;2022-11-20T13:00:21;2.33;;;1.40;;
11807;SDS011;5961;42.640;23.380;2022-11-20T13:05:47;5.60;;;2.27;;
11807;SDS011;5961;42.640;23.380;2022-11-20T13:08:22;3.50;;;2.00;;
11807;SDS011;5961;42.640;23.380;2022-11-20T13:10:54;3.97;;;2.10;;
11807;SDS011;5961;42.640;23.380;2022-11-20T13:13:29;3.87;;;2.00;;
11807;SDS011;5961;42.640;23.380;2022-11-20T13:16:02;5.77;;;2.17;;
11807;SDS011;5961;42.640;23.380;2022-11-20T13:18:35;3.87;;;2.10;;
11807;SDS011;5961;42.640;23.380;2022-11-20T13:21:13;3.87;;;1.80;;
11807;SDS011;5961;42.640;23.380;2022-11-20T13:23:40;4.50;;;1.87;;
11807;SDS011;5961;42.640;23.380;2022-11-20T13:26:15;2.63;;;1.73;;
11807;SDS011;5961;42.640;23.380;2022-11-20T13:28:47;3.60;;;1.97;;
11807;SDS011;5961;42.640;23.380;2022-11-20T13:31:30;5.33;;;1.83;;
11807;SDS011;5961;42.640;23.380;2022-11-20T13:33:58;2.47;;;1.63;;
11807;SDS011;5961;42.640;23.380;2022-11-20T13:36:28;6.40;;;2.00;;
11807;SDS011;5961;42.640;23.380;2022-11-20T13:38:57;4.83;;;2.07;;
11807;SDS011;5961;42.640;23.380;2022-11-20T13:41:27;6.43;;;2.30;;
11807;SDS011;5961;42.640;23.380;2022-11-20T13:43:58;3.87;;;2.60;;
11807;SDS011;5961;42.640;23.380;2022-11-20T13:46:35;4.00;;;2.20;;
11807;SDS011;5961;42.640;23.380;2022-11-20T13:49:06;5.23;;;2.40;;
11807;SDS011;5961;42.640;23.380;2022-11-20T13:51:36;4.77;;;2.50;;
11807;SDS011;5961;42.640;23.380;2022-11-20T13:57:14;5.07;;;2.27;;
11807;SDS011;5961;42.640;23.380;2022-11-20T14:00:02;6.10;;;2.30;;
11807;SDS011;5961;42.640;23.380;2022-11-20T14:02:36;7.40;;;2.53;;
11807;SDS011;5961;42.640;23.380;2022-11-20T14:05:03;5.33;;;2.20;;
11807;SDS011;5961;42.640;23.380;2022-11-20T14:07:32;6.67;;;2.97;;
11807;SDS011;5961;42.640;23.380;2022-11-20T14:10:03;3.80;;;2.37;;
11807;SDS011;5961;42.640;23.380;2022-11-20T14:12:32;3.73;;;2.30;;
11807;SDS011;5961;42.640;23.380;2022-11-20T14:15:01;4.67;;;2.43;;
11807;SDS011;5961;42.640;23.380;2022-11-20T14:17:29;6.43;;;3.00;;
11807;SDS011;5961;42.640;23.380;2022-11-20T14:19:58;6.33;;;3.10;;
11807;SDS011;5961;42.640;23.380;2022-11-20T14:22:28;7.10;;;3.03;;
11807;SDS011;5961;42.640;23.380;2022-11-20T14:25:05;10.33;;;3.47;;
11807;SDS011;5961;42.640;23.380;2022-11-20T14:27:45;7.87;;;3.87;;
11807;SDS011;5961;42.640;23.380;2022-11-20T14:30:16;6.40;;;3.33;;
11807;SDS011;5961;42.640;23.380;2022-11-20T14:32:46;5.83;;;2.90;;
11807;SDS011;5961;42.640;23.380;2022-11-20T14:35:14;8.73;;;4.63;;
11807;SDS011;5961;42.640;23.380;2022-11-20T14:37:46;6.07;;;2.90;;
11807;SDS011;5961;42.640;23.380;2022-11-20T14:40:24;4.83;;;2.90;;
11807;SDS011;5961;42.640;23.380;2022-11-20T14:42:54;5.40;;;2.90;;
11807;SDS011;5961;42.640;23.380;2022-11-20T14:45:21;12.63;;;3.90;;
11807;SDS011;5961;42.640;23.380;2022-11-20T14:47:49;7.60;;;3.77;;
11807;SDS011;5961;42.640;23.380;2022-11-20T14:50:18;4.93;;;3.20;;
11807;SDS011;5961;42.640;23.380;2022-11-20T14:52:51;5.93;;;3.30;;
11807;SDS011;5961;42.640;23.380;2022-11-20T14:55:26;7.27;;;3.57;;
11807;SDS011;5961;42.640;23.380;2022-11-20T14:57:56;5.10;;;3.67;;
11807;SDS011;5961;42.640;23.380;2022-11-20T15:00:25;6.00;;;3.33;;
11807;SDS011;5961;42.640;23.380;2022-11-20T15:02:52;5.40;;;3.37;;
11807;SDS011;5961;42.640;23.380;2022-11-20T15:05:19;8.53;;;3.70;;
11807;SDS011;5961;42.640;23.380;2022-11-20T15:07:48;9.03;;;3.73;;
11807;SDS011;5961;42.640;23.380;2022-11-20T15:10:20;8.13;;;4.17;;
11807;SDS011;5961;42.640;23.380;2022-11-20T15:12:49;7.27;;;4.57;;
11807;SDS011;5961;42.640;23.380;2022-11-20T15:15:20;8.80;;;4.30;;
11807;SDS011;5961;42.640;23.380;2022-11-20T15:17:49;10.57;;;4.40;;
11807;SDS011;5961;42.640;23.380;2022-11-20T15:20:16;7.13;;;3.90;;
11807;SDS011;5961;42.640;23.380;2022-11-20T15:22:44;5.93;;;2.90;;